Time;durP1;ratioP1;P1;durP2;ratioP2;P2;SDS_P1;SDS_P2;PMS_P1;PMS_P2;Temp;Humidity;BMP_temperature;BMP_pressure;BME280_temperature;BME280_humidity;BME280_pressure;Samples;Min_cycle;Max_cycle;Signal;HPM_P1;HPM_P2
2023/03/26 00:00:43;;;;;;;10.53;2.13;;;;;;;-145.18;100.00;60484.78;5086387;28;20110;-70
2023/03/26 00:03:12;;;;;;;9.73;2.03;;;;;;;-145.18;100.00;60484.78;5076142;28;20025;-70
2023/03/26 00:05:39;;;;;;;8.03;1.57;;;;;;;-145.18;100.00;60484.78;5089018;28;20091;-70
2023/03/26 00:08:07;;;;;;;14.37;2.30;;;;;;;-145.18;100.00;60484.78;5091602;28;20534;-70
2023/03/26 00:10:34;;;;;;;10.03;1.80;;;;;;;-145.18;100.00;60484.78;5078882;28;20492;-71
2023/03/26 00:13:00;;;;;;;8.47;1.93;;;;;;;-145.18;100.00;60484.78;5089164;28;20476;-70
2023/03/26 00:15:25;;;;;;;11.40;2.13;;;;;;;-145.18;100.00;60484.78;5084203;28;20047;-70
2023/03/26 00:17:52;;;;;;;11.93;1.90;;;;;;;-145.18;100.00;60484.78;5091411;28;20499;-72
2023/03/26 00:20:18;;;;;;;5.07;1.53;;;;;;;-145.18;100.00;60484.78;5091585;28;20042;-71
2023/03/26 00:22:44;;;;;;;10.10;1.23;;;;;;;-145.18;100.00;60484.78;5091799;28;20036;-71
2023/03/26 00:25:10;;;;;;;9.57;1.80;;;;;;;-145.18;100.00;60484.78;5089594;28;20035;-71
2023/03/26 00:27:36;;;;;;;8.63;1.90;;;;;;;-145.18;100.00;60484.78;5092658;28;20210;-70
2023/03/26 00:30:03;;;;;;;9.03;1.70;;;;;;;-145.18;100.00;60484.78;5093413;28;20399;-71
2023/03/26 00:32:29;;;;;;;10.80;1.90;;;;;;;-145.18;100.00;60484.78;5095655;28;20077;-70
2023/03/26 00:34:55;;;;;;;8.20;1.90;;;;;;;-145.18;100.00;60484.78;5093215;28;20043;-71
2023/03/26 00:37:25;;;;;;;9.33;1.87;;;;;;;-145.18;100.00;60484.78;5095419;28;20039;-70
2023/03/26 00:39:52;;;;;;;9.97;2.20;;;;;;;-145.18;100.00;60484.78;5096821;28;20063;-71
2023/03/26 00:42:17;;;;;;;11.37;2.43;;;;;;;-145.18;100.00;60484.78;5096644;28;20028;-70
2023/03/26 00:44:43;;;;;;;11.57;2.20;;;;;;;-145.18;100.00;60484.78;5098199;28;20097;-71
2023/03/26 00:47:08;;;;;;;6.73;1.90;;;;;;;-145.18;100.00;60484.78;5096802;28;20028;-71
2023/03/26 00:49:34;;;;;;;10.87;2.17;;;;;;;-145.18;100.00;60484.78;5096692;28;20463;-71
2023/03/26 00:52:01;;;;;;;13.33;2.37;;;;;;;-145.18;100.00;60484.78;5093503;28;20392;-72
2023/03/26 00:54:28;;;;;;;12.63;2.60;;;;;;;-145.18;100.00;60484.78;5096787;28;20115;-71
2023/03/26 00:56:54;;;;;;;13.13;2.70;;;;;;;-145.18;100.00;60484.78;5096440;28;20475;-71
2023/03/26 00:59:21;;;;;;;10.03;1.97;;;;;;;-145.18;100.00;60484.78;5096893;28;20103;-71
2023/03/26 01:01:47;;;;;;;9.07;2.20;;;;;;;-145.18;100.00;60484.78;5096127;28;20043;-63
2023/03/26 01:04:29;;;;;;;13.90;2.83;;;;;;;-145.18;100.00;60484.78;5092688;22;20097;-69
2023/03/26 01:06:55;;;;;;;10.60;2.33;;;;;;;-145.18;100.00;60484.78;5093580;28;20404;-69
2023/03/26 01:09:33;;;;;;;8.37;2.10;;;;;;;-145.18;100.00;60484.78;5088689;28;20369;-69
2023/03/26 01:12:01;;;;;;;8.70;2.50;;;;;;;-145.18;100.00;60484.78;5096176;28;20036;-69
2023/03/26 01:14:30;;;;;;;11.47;2.50;;;;;;;-145.18;100.00;60484.78;5098638;28;20055;-69
2023/03/26 01:16:59;;;;;;;10.70;1.90;;;;;;;-145.18;100.00;60484.78;5098648;28;20028;-69
2023/03/26 01:19:50;;;;;;;10.47;2.40;;;;;;;-145.18;100.00;60484.78;5095796;28;20024;-69
2023/03/26 01:22:19;;;;;;;14.10;2.83;;;;;;;-145.18;100.00;60484.78;5091458;28;20024;-69
2023/03/26 01:24:51;;;;;;;14.03;2.40;;;;;;;-145.18;100.00;60484.78;5098460;28;20054;-68
2023/03/26 01:27:49;;;;;;;9.20;2.40;;;;;;;-145.18;100.00;60484.78;5097745;28;20417;-69
2023/03/26 01:30:32;;;;;;;11.03;2.57;;;;;;;-145.18;100.00;60484.78;5078194;28;20044;-69
2023/03/26 01:33:28;;;;;;;7.53;2.03;;;;;;;-145.18;100.00;60484.78;5077400;28;20032;-69
2023/03/26 01:36:00;;;;;;;8.83;2.30;;;;;;;-145.18;100.00;60484.78;5096823;28;20028;-69
2023/03/26 01:38:58;;;;;;;6.97;2.30;;;;;;;-145.18;100.00;60484.78;5096378;28;20032;-69
2023/03/26 01:41:57;;;;;;;10.80;2.17;;;;;;;-145.18;100.00;60484.78;5078515;28;20025;-69
2023/03/26 01:44:33;;;;;;;7.63;2.10;;;;;;;-145.18;100.00;60484.78;5078639;28;20103;-69
2023/03/26 01:47:00;;;;;;;6.30;1.73;;;;;;;-145.18;100.00;60484.78;5096885;28;20111;-70
2023/03/26 01:49:30;;;;;;;12.10;2.00;;;;;;;-145.18;100.00;60484.78;5097714;28;20019;-69
2023/03/26 01:51:56;;;;;;;11.80;2.40;;;;;;;-145.18;100.00;60484.78;5095453;28;20016;-69
2023/03/26 01:54:25;;;;;;;8.47;1.73;;;;;;;-145.18;100.00;60484.78;5098542;28;20073;-69
2023/03/26 01:57:24;;;;;;;8.67;2.30;;;;;;;-145.18;100.00;60484.78;5093845;28;20450;-68
2023/03/26 02:00:21;;;;;;;7.60;1.73;;;;;;;-145.18;100.00;60484.78;5097158;28;20075;-69
2023/03/26 02:03:34;;;;;;;9.83;1.87;;;;;;;-145.18;100.00;60484.78;5085896;28;20040;-69
2023/03/26 02:06:15;;;;;;;8.70;1.93;;;;;;;-145.18;100.00;60484.78;4999793;28;20383;-69
2023/03/26 02:08:51;;;;;;;7.50;1.90;;;;;;;-145.18;100.00;60484.78;5014658;28;20029;-69
2023/03/26 02:11:16;;;;;;;11.17;2.07;;;;;;;-145.18;100.00;60484.78;5015180;28;20418;-69
2023/03/26 02:13:45;;;;;;;11.40;2.10;;;;;;;-145.18;100.00;60484.78;5013552;28;20059;-69
2023/03/26 02:16:15;;;;;;;16.17;3.17;;;;;;;-145.18;100.00;60484.78;5001676;28;20422;-69
2023/03/26 02:18:41;;;;;;;8.87;1.73;;;;;;;-145.18;100.00;60484.78;5013209;28;20102;-70
2023/03/26 02:21:14;;;;;;;10.80;2.93;;;;;;;-145.18;100.00;60484.78;5014997;28;20124;-69
2023/03/26 02:23:45;;;;;;;12.67;2.37;;;;;;;-145.18;100.00;60484.78;5016142;28;20460;-69
2023/03/26 02:26:13;;;;;;;7.13;1.60;;;;;;;-145.18;100.00;60484.78;5014634;28;20030;-68
2023/03/26 02:28:39;;;;;;;8.97;2.27;;;;;;;-145.18;100.00;60484.78;5014559;28;20034;-69
2023/03/26 02:31:05;;;;;;;9.37;2.00;;;;;;;-145.18;100.00;60484.78;5006968;28;20106;-69
2023/03/26 02:33:31;;;;;;;12.07;2.40;;;;;;;-145.18;100.00;60484.78;5014985;28;20038;-69
2023/03/26 02:36:00;;;;;;;10.20;2.30;;;;;;;-145.18;100.00;60484.78;5025228;28;20389;-69
2023/03/26 02:38:28;;;;;;;13.50;2.37;;;;;;;-145.18;100.00;60484.78;5074059;28;20074;-69
2023/03/26 02:40:54;;;;;;;9.67;2.00;;;;;;;-145.18;100.00;60484.78;5074601;28;20481;-69
2023/03/26 02:43:21;;;;;;;10.37;2.53;;;;;;;-145.18;100.00;60484.78;5059292;28;20388;-69
2023/03/26 02:45:47;;;;;;;8.60;2.13;;;;;;;-145.18;100.00;60484.78;5056509;28;20044;-69
2023/03/26 02:48:14;;;;;;;10.93;2.97;;;;;;;-145.18;100.00;60484.78;5074410;28;20024;-69
2023/03/26 02:50:39;;;;;;;11.60;2.37;;;;;;;-145.18;100.00;60484.78;5071663;28;20033;-69
2023/03/26 02:53:05;;;;;;;11.97;2.40;;;;;;;-145.18;100.00;60484.78;5070057;28;20021;-68
2023/03/26 02:55:30;;;;;;;11.77;3.50;;;;;;;-145.18;100.00;60484.78;5069262;28;20489;-69
2023/03/26 02:57:56;;;;;;;9.17;2.60;;;;;;;-145.18;100.00;60484.78;5073964;28;20116;-68
2023/03/26 03:00:22;;;;;;;10.70;2.70;;;;;;;-145.18;100.00;60484.78;5074308;28;20426;-69
2023/03/26 03:02:48;;;;;;;9.43;2.27;;;;;;;-145.18;100.00;60484.78;5074155;28;20070;-69
2023/03/26 03:05:14;;;;;;;7.87;2.63;;;;;;;-145.18;100.00;60484.78;5080985;28;20028;-69
2023/03/26 03:07:39;;;;;;;11.33;2.30;;;;;;;-145.18;100.00;60484.78;5073419;28;20109;-69
2023/03/26 03:10:09;;;;;;;7.50;2.40;;;;;;;-145.18;100.00;60484.78;5074199;28;20028;-69
2023/03/26 03:12:35;;;;;;;12.80;2.67;;;;;;;-145.18;100.00;60484.78;5073015;28;20477;-70
2023/03/26 03:15:01;;;;;;;8.30;2.03;;;;;;;-145.18;100.00;60484.78;5070535;28;20073;-69
2023/03/26 03:17:27;;;;;;;10.93;2.50;;;;;;;-145.18;100.00;60484.78;5074031;28;20500;-69
2023/03/26 03:19:53;;;;;;;10.93;2.17;;;;;;;-145.18;100.00;60484.78;5072455;28;20033;-69
2023/03/26 03:22:19;;;;;;;7.13;2.17;;;;;;;-145.18;100.00;60484.78;5073726;28;20028;-69
2023/03/26 03:24:45;;;;;;;6.30;2.17;;;;;;;-145.18;100.00;60484.78;5073212;28;20025;-69
2023/03/26 03:27:11;;;;;;;13.47;2.70;;;;;;;-145.18;100.00;60484.78;5072614;28;20127;-69
2023/03/26 03:29:37;;;;;;;10.40;2.63;;;;;;;-145.18;100.00;60484.78;5067351;28;20028;-69
2023/03/26 03:32:03;;;;;;;9.47;2.20;;;;;;;-145.18;100.00;60484.78;5072695;28;20115;-69
2023/03/26 03:34:28;;;;;;;11.40;2.00;;;;;;;-145.18;100.00;60484.78;5072801;28;20545;-69
2023/03/26 03:36:54;;;;;;;7.57;2.23;;;;;;;-145.18;100.00;60484.78;5073417;28;20029;-69
2023/03/26 03:39:19;;;;;;;7.33;2.10;;;;;;;-145.18;100.00;60484.78;5073749;28;20037;-69
2023/03/26 03:41:45;;;;;;;8.27;2.00;;;;;;;-145.18;100.00;60484.78;5075885;28;20499;-69
2023/03/26 03:44:11;;;;;;;8.17;2.10;;;;;;;-145.18;100.00;60484.78;5073367;28;20067;-69
2023/03/26 03:46:36;;;;;;;10.37;2.30;;;;;;;-145.18;100.00;60484.78;5072280;28;20028;-69
2023/03/26 03:49:02;;;;;;;7.70;2.07;;;;;;;-145.18;100.00;60484.78;5055062;28;20055;-69
2023/03/26 03:51:27;;;;;;;8.27;2.23;;;;;;;-145.18;100.00;60484.78;5069207;28;20035;-69
2023/03/26 03:53:54;;;;;;;10.83;2.13;;;;;;;-145.18;100.00;60484.78;5074071;28;20112;-69
2023/03/26 03:56:22;;;;;;;10.83;2.03;;;;;;;-145.18;100.00;60484.78;5072149;28;20028;-69
2023/03/26 03:58:48;;;;;;;9.47;2.60;;;;;;;-145.18;100.00;60484.78;5071398;28;20036;-69
2023/03/26 04:01:15;;;;;;;13.03;1.90;;;;;;;-145.18;100.00;60484.78;5070129;28;20028;-68
2023/03/26 04:03:44;;;;;;;8.43;2.10;;;;;;;-145.18;100.00;60484.78;5061380;28;20078;-70
2023/03/26 04:06:11;;;;;;;8.57;1.90;;;;;;;-145.18;100.00;60484.78;5069496;28;20442;-70
2023/03/26 04:08:36;;;;;;;7.83;1.90;;;;;;;-145.18;100.00;60484.78;5055760;28;20072;-70
2023/03/26 04:11:02;;;;;;;10.37;2.70;;;;;;;-145.18;100.00;60484.78;5072171;28;20469;-70
2023/03/26 04:13:27;;;;;;;9.20;2.10;;;;;;;-145.18;100.00;60484.78;5072779;28;20036;-70
2023/03/26 04:15:53;;;;;;;9.43;2.20;;;;;;;-145.18;100.00;60484.78;5073097;28;20032;-70
2023/03/26 04:18:21;;;;;;;9.93;2.40;;;;;;;-145.18;100.00;60484.78;5071122;28;20115;-70
2023/03/26 04:20:46;;;;;;;10.53;2.37;;;;;;;-145.18;100.00;60484.78;5071588;28;20577;-70
2023/03/26 04:23:13;;;;;;;7.63;2.20;;;;;;;-145.18;100.00;60484.78;5072634;28;20060;-70
2023/03/26 04:25:47;;;;;;;9.90;1.93;;;;;;;-145.18;100.00;60484.78;5070014;28;20437;-70
2023/03/26 04:28:30;;;;;;;9.50;2.50;;;;;;;-145.18;100.00;60484.78;5073539;28;20029;-70
2023/03/26 04:30:59;;;;;;;8.00;2.20;;;;;;;-145.18;100.00;60484.78;5071693;28;20036;-69
2023/03/26 04:33:30;;;;;;;8.60;2.43;;;;;;;-145.18;100.00;60484.78;5072734;28;20549;-70
2023/03/26 04:36:01;;;;;;;11.90;2.08;;;;;;;-145.18;100.00;60484.78;5070836;28;20041;-70
2023/03/26 04:38:42;;;;;;;11.48;2.15;;;;;;;-145.18;100.00;60484.78;5080460;28;20432;-70
2023/03/26 04:41:11;;;;;;;11.38;2.65;;;;;;;-145.18;100.00;60484.78;5073145;28;20029;-71
2023/03/26 04:43:41;;;;;;;11.07;2.43;;;;;;;-145.18;100.00;60484.78;5072764;28;20038;-70
2023/03/26 04:46:09;;;;;;;7.83;2.13;;;;;;;-145.18;100.00;60484.78;5070902;28;20040;-70
2023/03/26 04:48:35;;;;;;;13.80;2.70;;;;;;;-145.18;100.00;60484.78;5072885;28;20048;-70
2023/03/26 04:51:01;;;;;;;10.80;2.30;;;;;;;-145.18;100.00;60484.78;5071521;28;20028;-70
2023/03/26 04:53:27;;;;;;;10.97;2.17;;;;;;;-145.18;100.00;60484.78;5071780;28;20472;-71
2023/03/26 04:55:58;;;;;;;16.47;2.83;;;;;;;-145.18;100.00;60484.78;5072984;28;20495;-70
2023/03/26 04:58:31;;;;;;;;;;;;;;;-145.18;100.00;60484.78;5072987;28;20048;-69
2023/03/26 05:00:59;;;;;;;8.03;2.17;;;;;;;-145.18;100.00;60484.78;5071819;28;19920;-70
2023/03/26 05:03:29;;;;;;;9.50;2.40;;;;;;;-145.18;100.00;60484.78;5057754;28;20091;-70
2023/03/26 05:05:57;;;;;;;15.33;2.67;;;;;;;-145.18;100.00;60484.78;5055970;28;20060;-70
2023/03/26 05:08:22;;;;;;;13.37;2.80;;;;;;;-145.18;100.00;60484.78;5072287;28;20025;-70
2023/03/26 05:10:47;;;;;;;14.33;2.70;;;;;;;-145.18;100.00;60484.78;5071557;28;20039;-70
2023/03/26 05:13:13;;;;;;;11.33;2.77;;;;;;;-145.18;100.00;60484.78;5072128;28;20408;-70
2023/03/26 05:15:38;;;;;;;11.77;2.50;;;;;;;-145.18;100.00;60484.78;5072805;28;20039;-70
2023/03/26 05:18:04;;;;;;;12.37;2.60;;;;;;;-145.18;100.00;60484.78;5074484;28;20025;-70
2023/03/26 05:20:30;;;;;;;12.97;2.67;;;;;;;-145.18;100.00;60484.78;5072406;28;20392;-70
2023/03/26 05:22:55;;;;;;;15.27;2.60;;;;;;;-145.18;100.00;60484.78;5075825;28;20029;-70
2023/03/26 05:25:21;;;;;;;10.43;2.93;;;;;;;-145.18;100.00;60484.78;5075729;28;20051;-70
2023/03/26 05:27:47;;;;;;;11.20;2.83;;;;;;;-145.18;100.00;60484.78;5074084;28;20024;-70
2023/03/26 05:30:16;;;;;;;10.13;2.90;;;;;;;-145.18;100.00;60484.78;5075311;28;20028;-70
2023/03/26 05:32:49;;;;;;;15.90;2.90;;;;;;;-145.18;100.00;60484.78;5075644;28;20103;-71
2023/03/26 05:35:15;;;;;;;14.37;2.90;;;;;;;-145.18;100.00;60484.78;5076225;28;20037;-70
2023/03/26 05:37:44;;;;;;;15.77;2.70;;;;;;;-145.18;100.00;60484.78;5072617;28;20043;-70
2023/03/26 05:40:11;;;;;;;12.47;3.13;;;;;;;-145.18;100.00;60484.78;5080723;28;20369;-70
2023/03/26 05:42:37;;;;;;;12.30;2.67;;;;;;;-145.18;100.00;60484.78;5091878;28;20029;-70
2023/03/26 05:45:05;;;;;;;12.87;2.83;;;;;;;-145.18;100.00;60484.78;5075627;28;20442;-70
2023/03/26 05:47:33;;;;;;;10.77;2.40;;;;;;;-145.18;100.00;60484.78;5090018;28;20020;-70
2023/03/26 05:49:59;;;;;;;10.57;2.53;;;;;;;-145.18;100.00;60484.78;5074861;28;20059;-70
2023/03/26 05:52:25;;;;;;;11.07;2.60;;;;;;;-145.18;100.00;60484.78;5072352;28;20434;-70
2023/03/26 05:54:54;;;;;;;9.47;2.33;;;;;;;-145.18;100.00;60484.78;5073050;28;20450;-70
2023/03/26 05:57:21;;;;;;;11.23;2.80;;;;;;;-145.18;100.00;60484.78;5075202;28;20435;-70
2023/03/26 05:59:47;;;;;;;9.63;2.60;;;;;;;-145.18;100.00;60484.78;5074722;28;20385;-70
2023/03/26 06:02:12;;;;;;;12.50;2.80;;;;;;;-145.18;100.00;60484.78;5074945;28;20035;-73
2023/03/26 06:04:39;;;;;;;10.03;2.50;;;;;;;-145.18;100.00;60484.78;5076135;28;20384;-73
2023/03/26 06:07:08;;;;;;;12.27;2.70;;;;;;;-145.18;100.00;60484.78;5065999;28;20029;-73
2023/03/26 06:09:37;;;;;;;12.33;2.37;;;;;;;-145.18;100.00;60484.78;5056168;28;20028;-73
2023/03/26 06:12:03;;;;;;;14.87;3.43;;;;;;;-145.18;100.00;60484.78;5068129;28;21478;-73
2023/03/26 06:14:29;;;;;;;9.23;2.73;;;;;;;-145.18;100.00;60484.78;5076337;28;20167;-72
2023/03/26 06:16:54;;;;;;;10.63;2.80;;;;;;;-145.18;100.00;60484.78;5074852;28;20528;-73
2023/03/26 06:19:20;;;;;;;10.93;3.30;;;;;;;-145.18;100.00;60484.78;5077668;28;20078;-73
2023/03/26 06:21:45;;;;;;;11.07;2.73;;;;;;;-145.18;100.00;60484.78;5074683;28;20067;-73
2023/03/26 06:24:11;;;;;;;9.57;2.63;;;;;;;-145.18;100.00;60484.78;5075923;28;20029;-73
2023/03/26 06:26:36;;;;;;;14.97;3.33;;;;;;;-145.18;100.00;60484.78;5074692;28;20036;-72
2023/03/26 06:29:02;;;;;;;12.00;2.80;;;;;;;-145.18;100.00;60484.78;5063302;28;20028;-72
2023/03/26 06:31:27;;;;;;;12.40;2.77;;;;;;;-145.18;100.00;60484.78;5060541;28;20024;-71
2023/03/26 06:33:53;;;;;;;11.43;3.23;;;;;;;-145.18;100.00;60484.78;5077612;28;20025;-71
2023/03/26 06:36:18;;;;;;;9.70;2.90;;;;;;;-145.18;100.00;60484.78;5067016;28;20047;-71
2023/03/26 06:38:44;;;;;;;14.07;4.33;;;;;;;-145.18;100.00;60484.78;5081795;28;20024;-72
2023/03/26 06:41:09;;;;;;;8.40;2.87;;;;;;;-145.18;100.00;60484.78;5081701;28;20365;-71
2023/03/26 06:43:36;;;;;;;15.80;3.07;;;;;;;-145.18;100.00;60484.78;5071196;28;20032;-72
2023/03/26 06:46:02;;;;;;;12.40;3.27;;;;;;;-145.18;100.00;60484.78;5058000;28;20032;-71
2023/03/26 06:48:27;;;;;;;14.33;3.10;;;;;;;-145.18;100.00;60484.78;5071648;28;20030;-72
2023/03/26 06:50:53;;;;;;;11.07;3.03;;;;;;;-145.18;100.00;60484.78;5075223;28;20017;-72
2023/03/26 06:53:18;;;;;;;14.30;3.20;;;;;;;-145.18;100.00;60484.78;5074328;28;20024;-72
2023/03/26 06:55:44;;;;;;;12.47;2.97;;;;;;;-145.18;100.00;60484.78;5075327;28;20052;-72
2023/03/26 06:58:11;;;;;;;9.33;3.03;;;;;;;-145.18;100.00;60484.78;5074141;28;20020;-72
2023/03/26 07:00:37;;;;;;;10.90;3.27;;;;;;;-145.18;100.00;60484.78;5072152;28;20020;-71
2023/03/26 07:03:04;;;;;;;12.57;3.30;;;;;;;-145.18;100.00;60484.78;5071015;28;20549;-71
2023/03/26 07:05:29;;;;;;;14.40;3.20;;;;;;;-145.18;100.00;60484.78;5055136;28;20032;-71
2023/03/26 07:07:55;;;;;;;14.87;3.30;;;;;;;-145.18;100.00;60484.78;5067324;28;20020;-72
2023/03/26 07:10:22;;;;;;;12.50;3.83;;;;;;;-145.18;100.00;60484.78;5075288;28;20032;-71
2023/03/26 07:12:48;;;;;;;11.23;2.87;;;;;;;-145.18;100.00;60484.78;5076107;28;20042;-72
2023/03/26 07:15:13;;;;;;;14.50;3.10;;;;;;;-145.18;100.00;60484.78;5074167;28;20021;-72
2023/03/26 07:17:39;;;;;;;14.00;2.97;;;;;;;-145.18;100.00;60484.78;5069616;28;20028;-72
2023/03/26 07:20:06;;;;;;;10.00;2.70;;;;;;;-145.18;100.00;60484.78;5070640;28;20138;-71
2023/03/26 07:22:33;;;;;;;13.30;3.90;;;;;;;-145.18;100.00;60484.78;5071401;28;20027;-72
2023/03/26 07:24:58;;;;;;;10.63;2.87;;;;;;;-145.18;100.00;60484.78;5054569;28;20036;-72
2023/03/26 07:27:58;;;;;;;7.10;2.40;;;;;;;-145.18;100.00;60484.78;5068915;28;20488;-72
2023/03/26 07:30:51;;;;;;;15.17;2.93;;;;;;;-145.18;100.00;60484.78;5062649;28;20045;-72
2023/03/26 07:33:48;;;;;;;16.10;3.30;;;;;;;-145.18;100.00;60484.78;5072745;28;20040;-72
2023/03/26 07:36:26;;;;;;;12.70;3.03;;;;;;;-145.18;100.00;60484.78;5073788;28;20400;-72
2023/03/26 07:39:37;;;;;;;10.50;2.80;;;;;;;-145.18;100.00;60484.78;5069300;28;20377;-72
2023/03/26 07:42:30;;;;;;;10.93;2.60;;;;;;;-145.18;100.00;60484.78;5008263;28;20104;-72
2023/03/26 07:45:09;;;;;;;11.63;3.13;;;;;;;-145.18;100.00;60484.78;5010374;28;20177;-72
2023/03/26 07:47:35;;;;;;;12.80;2.87;;;;;;;-145.18;100.00;60484.78;5019188;28;20053;-72
2023/03/26 07:50:02;;;;;;;15.43;3.27;;;;;;;-145.18;100.00;60484.78;5011638;28;20026;-72
2023/03/26 07:52:28;;;;;;;10.50;2.90;;;;;;;-145.18;100.00;60484.78;5007737;28;20038;-72
2023/03/26 07:54:54;;;;;;;13.07;2.60;;;;;;;-145.18;100.00;60484.78;5011162;28;20044;-71
2023/03/26 07:58:10;;;;;;;23.00;3.43;;;;;;;-145.18;100.00;60484.78;5012354;28;20038;-72
2023/03/26 08:00:50;;;;;;;19.23;3.40;;;;;;;-145.18;100.00;60484.78;4993633;28;20045;-72
2023/03/26 08:04:05;;;;;;;19.27;2.80;;;;;;;-145.18;100.00;60484.78;5011360;28;20128;-72
2023/03/26 08:06:36;;;;;;;17.90;2.70;;;;;;;-145.18;100.00;60484.78;4972243;28;20530;-72
2023/03/26 08:09:37;;;;;;;16.50;2.90;;;;;;;-145.18;100.00;60484.78;4958972;28;20042;-72
2023/03/26 08:12:21;;;;;;;21.37;3.90;;;;;;;-145.18;100.00;60484.78;4936922;29;20065;-72
2023/03/26 08:15:09;;;;;;;15.00;3.67;;;;;;;-145.18;100.00;60484.78;4947127;28;20043;-72
2023/03/26 08:17:45;;;;;;;16.93;3.83;;;;;;;-145.18;100.00;60484.78;4956002;28;20492;-72
2023/03/26 08:20:40;;;;;;;15.67;4.00;;;;;;;-145.18;100.00;60484.78;5025286;28;20030;-72
2023/03/26 08:23:48;;;;;;;13.73;3.47;;;;;;;-145.18;100.00;60484.78;5001270;28;20641;-71
2023/03/26 08:27:18;;;;;;;14.53;3.13;;;;;;;-145.18;100.00;60484.78;4991188;28;20432;-72
2023/03/26 08:30:21;;;;;;;13.23;2.80;;;;;;;-145.18;100.00;60484.78;4932259;29;20040;-70
2023/03/26 08:33:01;;;;;;;14.67;2.70;;;;;;;-145.18;100.00;60484.78;4933708;29;20602;-70
2023/03/26 08:35:27;;;;;;;19.23;3.27;;;;;;;-145.18;100.00;60484.78;4930752;29;20285;-71
2023/03/26 08:37:53;;;;;;;11.83;2.67;;;;;;;-145.18;100.00;60484.78;4931159;29;20110;-70
2023/03/26 08:40:59;;;;;;;13.70;3.00;;;;;;;-145.18;100.00;60484.78;4930977;29;20032;-70
2023/03/26 08:43:57;;;;;;;14.47;2.67;;;;;;;-145.18;100.00;60484.78;4941884;28;20049;-70
2023/03/26 08:46:38;;;;;;;15.53;3.10;;;;;;;-145.18;100.00;60484.78;4872170;29;20559;-70
2023/03/26 08:49:48;;;;;;;21.20;3.23;;;;;;;-145.18;100.00;60484.78;4876868;29;20383;-70
2023/03/26 08:52:31;;;;;;;20.37;2.77;;;;;;;-145.18;100.00;60484.78;4872243;29;20045;-71
2023/03/26 08:54:59;;;;;;;20.00;2.90;;;;;;;-145.18;100.00;60484.78;4879461;29;20045;-71
2023/03/26 08:58:01;;;;;;;16.43;2.90;;;;;;;-145.18;100.00;60484.78;4880670;29;20048;-71
2023/03/26 09:01:05;;;;;;;20.90;3.58;;;;;;;-145.18;100.00;60484.78;4889602;29;20232;-71
2023/03/26 09:03:45;;;;;;;21.37;4.00;;;;;;;-145.18;100.00;60484.78;4897909;29;20072;-71
2023/03/26 09:06:38;;;;;;;24.33;3.53;;;;;;;-145.18;100.00;60484.78;4941807;28;20574;-71
2023/03/26 09:09:51;;;;;;;18.10;3.50;;;;;;;-145.18;100.00;60484.78;4972041;28;20610;-71
2023/03/26 09:12:58;;;;;;;22.43;3.60;;;;;;;-145.18;100.00;60484.78;4969195;28;20035;-72
2023/03/26 09:16:17;;;;;;;20.70;3.97;;;;;;;-145.18;100.00;60484.78;4931995;29;20052;-72
2023/03/26 09:19:36;;;;;;;14.13;3.47;;;;;;;-145.18;100.00;60484.78;4903974;29;20059;-72
2023/03/26 09:22:36;;;;;;;18.13;4.77;;;;;;;-145.18;100.00;60484.78;4890454;29;20041;-72
2023/03/26 09:25:44;;;;;;;24.50;5.20;;;;;;;-145.18;100.00;60484.78;4894413;29;20136;-72
2023/03/26 09:28:49;;;;;;;25.37;4.90;;;;;;;-145.18;100.00;60484.78;4902222;29;20044;-71
2023/03/26 09:32:01;;;;;;;20.07;5.43;;;;;;;-145.18;100.00;60484.78;4914768;29;20032;-71
2023/03/26 09:34:30;;;;;;;;;;;;;;;-145.18;100.00;60484.78;4929905;29;20039;-71
2023/03/26 09:37:13;;;;;;;19.10;4.80;;;;;;;-145.18;100.00;60484.78;4919430;29;19919;-72
2023/03/26 09:40:17;;;;;;;20.43;5.40;;;;;;;-145.18;100.00;60484.78;4916078;29;20039;-72
2023/03/26 09:42:55;;;;;;;21.57;6.13;;;;;;;-145.18;100.00;60484.78;4917282;29;20076;-72
2023/03/26 09:46:00;;;;;;;22.37;5.07;;;;;;;-145.18;100.00;60484.78;4922470;29;20123;-71
2023/03/26 09:49:21;;;;;;;19.97;4.33;;;;;;;-145.18;100.00;60484.78;4888389;29;20115;-71
2023/03/26 09:52:06;;;;;;;23.67;4.83;;;;;;;-145.18;100.00;60484.78;4897414;28;20070;-71
2023/03/26 09:55:22;;;;;;;20.83;3.93;;;;;;;-145.18;100.00;60484.78;4989726;28;20023;-71
2023/03/26 09:58:42;;;;;;;16.60;4.27;;;;;;;-145.18;100.00;60484.78;5025470;28;20055;-71
2023/03/26 10:01:32;;;;;;;23.27;4.87;;;;;;;-145.18;100.00;60484.78;5017681;28;20518;-73
2023/03/26 10:04:37;;;;;;;22.70;5.23;;;;;;;-145.18;100.00;60484.78;5069936;28;20479;-71
2023/03/26 10:07:36;;;;;;;18.53;4.53;;;;;;;-145.18;100.00;60484.78;5048123;28;20044;-72
2023/03/26 10:10:29;;;;;;;19.93;4.73;;;;;;;-145.18;100.00;60484.78;5023948;28;20053;-71
2023/03/26 10:13:32;;;;;;;15.97;3.73;;;;;;;-145.18;100.00;60484.78;5046570;28;20071;-72
2023/03/26 10:16:21;;;;;;;20.87;3.90;;;;;;;-145.18;100.00;60484.78;5004251;28;20048;-72
2023/03/26 10:19:30;;;;;;;18.87;2.90;;;;;;;-145.18;100.00;60484.78;4984109;28;20042;-72
2023/03/26 10:22:44;;;;;;;15.70;3.87;;;;;;;-145.18;100.00;60484.78;4955153;28;20054;-71
2023/03/26 10:25:25;;;;;;;11.70;3.50;;;;;;;-145.18;100.00;60484.78;4926772;28;20047;-71
2023/03/26 10:28:20;;;;;;;16.87;3.30;;;;;;;-145.18;100.00;60484.78;4955849;28;20581;-71
2023/03/26 10:31:39;;;;;;;14.93;2.70;;;;;;;-145.18;100.00;60484.78;4949729;28;20070;-72
2023/03/26 10:35:03;;;;;;;17.30;2.90;;;;;;;-145.18;100.00;60484.78;4944890;28;20125;-73
2023/03/26 10:37:46;;;;;;;12.50;2.45;;;;;;;-145.18;100.00;60484.78;4893693;28;20056;-72
2023/03/26 10:40:47;;;;;;;12.40;2.30;;;;;;;-145.18;100.00;60484.78;4951918;29;20042;-72
2023/03/26 10:43:47;;;;;;;12.77;2.53;;;;;;;-145.18;100.00;60484.78;4880815;29;20041;-72
2023/03/26 10:47:11;;;;;;;13.17;2.40;;;;;;;-145.18;100.00;60484.78;4859319;29;20077;-72
2023/03/26 10:49:48;;;;;;;13.73;2.80;;;;;;;-145.18;100.00;60484.78;4774665;30;20074;-72
2023/03/26 10:52:29;;;;;;;13.53;3.00;;;;;;;-145.18;100.00;60484.78;4768890;29;20046;-72
2023/03/26 10:55:01;;;;;;;16.30;3.43;;;;;;;-145.18;100.00;60484.78;4804304;29;20047;-71
2023/03/26 10:57:52;;;;;;;11.20;2.63;;;;;;;-145.18;100.00;60484.78;4814481;29;20507;-72
2023/03/26 11:00:24;;;;;;;14.93;2.50;;;;;;;-145.18;100.00;60484.78;4800965;29;20031;-73
2023/03/26 11:03:37;;;;;;;11.98;2.45;;;;;;;-145.18;100.00;60484.78;4804873;29;20042;-71
2023/03/26 11:06:24;;;;;;;10.90;2.38;;;;;;;-145.18;100.00;60484.78;4763550;30;20499;-72
2023/03/26 11:09:30;;;;;;;15.65;2.78;;;;;;;-145.18;100.00;60484.78;4767422;30;20035;-73
2023/03/26 11:12:27;;;;;;;12.68;2.58;;;;;;;-145.18;100.00;60484.78;4762047;30;20284;-72
2023/03/26 11:15:20;;;;;;;9.80;2.17;;;;;;;-145.18;100.00;60484.78;4763451;30;20528;-72
2023/03/26 11:18:29;;;;;;;11.52;2.10;;;;;;;-145.18;100.00;60484.78;4769637;30;20100;-73
2023/03/26 11:21:10;;;;;;;13.10;2.15;;;;;;;-145.18;100.00;60484.78;4753036;30;20039;-71
2023/03/26 11:23:53;;;;;;;10.93;2.20;;;;;;;-145.18;100.00;60484.78;4817281;29;20042;-70
2023/03/26 11:26:54;;;;;;;11.73;2.30;;;;;;;-145.18;100.00;60484.78;4837704;29;20542;-72
2023/03/26 11:29:55;;;;;;;11.60;2.25;;;;;;;-145.18;100.00;60484.78;4854117;29;20042;-73
2023/03/26 11:32:33;;;;;;;14.10;2.20;;;;;;;-145.18;100.00;60484.78;4840141;29;20038;-72
2023/03/26 11:35:24;;;;;;;13.00;2.70;;;;;;;-145.18;100.00;60484.78;4842431;29;20067;-73
2023/03/26 11:37:53;;;;;;;15.88;2.10;;;;;;;-145.18;100.00;60484.78;4853841;29;20056;-73
2023/03/26 11:40:40;;;;;;;13.13;2.58;;;;;;;-145.18;100.00;60484.78;4838229;29;20053;-72
2023/03/26 11:43:12;;;;;;;9.95;2.20;;;;;;;-145.18;100.00;60484.78;4874817;29;20541;-72
2023/03/26 11:45:44;;;;;;;12.93;2.55;;;;;;;-145.18;100.00;60484.78;4900008;29;20540;-73
2023/03/26 11:48:18;;;;;;;11.70;2.13;;;;;;;-145.18;100.00;60484.78;4946182;29;20039;-72